AirNav   Air Wisconsin pilot careers
 
 489 users online  

2KY0 Jane Todd Crawford Hospital Heliport
Greensburg, Kentucky, USA

GOING TO GREENSBURG?


FAA INFORMATION EFFECTIVE 01 FEBRUARY 2018

Location

FAA Identifier: 2KY0
Lat/Long: 37-14-35.7600N / 085-29-34.8700W
37-14.596000N / 085-29.581167W
37.2432667 / -85.4930194
(estimated)
Elevation: 625 ft. / 190 m (estimated)
Variation: 03W (1995)
From city: 1 mile SE of GREENSBURG, KY
Time zone: UTC -6 (UTC -5 during Daylight Saving Time)
Zip code: 42743

Heliport Operations

Heliport use: Private use, MEDICAL USE.
Activation date: 06/1998
Control tower: no
ARTCC: INDIANAPOLIS CENTER
FSS: LOUISVILLE FLIGHT SERVICE STATION
Attendance: UNATNDD
Wind indicator: lighted
Segmented circle: no

Heliport Communications

WX AWOS-3 at AAS (11 nm NE): 121.125 (270-789-1985)

Nearby radio navigation aids

VOR radial/distance  VOR name  Freq  Var
EWOr159/24.9NEW HOPE VOR/DME110.8001E

Heliport Services

Runway Information

Helipad H1

Dimensions: 24 x 24 ft. / 7 x 7 m
Surface: concrete
Latitude: 37-14.596000N
Longitude: 085-29.581167W
Elevation: 625.0 ft.
Traffic pattern: leftleft

Heliport Ownership and Management from official FAA records

Ownership: Privately-owned
Owner: JANE TODD CRAWFORD HOSPITAL
202-206 MILBY STREET
GREENSBURG, KY 42743
Phone 270-932-4211
Manager: HENRY SHUFFETT
PO BOX 313
GREENSBURG, KY 42743
Phone 270-405-1299

Heliport Operational Statistics

Aircraft based on the field: 1
Helicopters: 1
    

Additional Remarks

A52-H1 25 FT POWER LINES 105 FT SSE; 40 FT TREES 110 FT N; 130 FT ANT TWR 350 YARDS W.

Instrument Procedures

There are no published instrument procedures at 2KY0.

Some nearby airports with instrument procedures:

KAAS - Taylor County Airport (11 nm NE)
K24 - Russell County Airport (23 nm SE)
KGLW - Glasgow Municipal Airport (25 nm SW)
6I2 - Lebanon Springfield Airport-George Hoerter Field (26 nm NE)
KTZV - Tompkinsville-Monroe County Airport (32 nm S)
 
Loc | Ops | Rwys | IFR | FBO | Links
Com | Nav | Svcs | Stats | Notes

AirNav Hotels Sweepstakes
 
Area around 2KY0 (Jane Todd Crawford Hospital Heliport)
 
Road maps at: MapQuest Bing Google
 
Aerial photo
No photo
 
Sectional chart

 
Airport distance calculator
Flying to Jane Todd Crawford Hospital Heliport? Find the distance to fly.

From to 2KY0

Sunrise and sunset
Times for 22-Feb-2018
 Local
(UTC-6)
 Zulu
(UTC)
Morning civil twilight05:5711:57
Sunrise06:2312:23
Sunset17:2823:28
Evening civil twilight17:5423:54

Current date and time
Zulu (UTC)  22-Feb-2018 11:39:11
Local (UTC-6)  22-Feb-2018 05:39:11
 
METAR
KGLW 
25nm SW 
221110Z AUTO 00000KT 10SM DZ BKN005 BKN024 OVC033 A3029 RMK AO2
K6I2 
26nm NE 
221110Z AUTO 02006KT 5SM -RA BKN003 BKN017 08/08 A3029 RMK AO2
KEKX 
34nm NW 
221115Z AUTO 04008KT 10SM -DZ BKN007 BKN020 OVC070 06/06 A3030 RMK AO2 P0006 T00620062
KBRY 
34nm N 
221115Z AUTO 03006KT 7SM BKN007 OVC013 06/06 A3029 RMK AO1
KDVK 
40nm NE 
221115Z AUTO 32010G22KT 3SM +RA BKN005 BKN014 OVC020 07/07 A3033 RMK AO2
KSME 
43nm E 
221115Z AUTO 00000KT 5SM -RA BKN075 OVC095 12/12 A3027 RMK AO2
KFTK 
45nm NW 
221120Z AUTO 03008KT 10SM OVC008 06/06 A3032 RMK AO2 RAE01 PRESRR SLP274
KBWG 
47nm W 
221053Z AUTO 06005KT 10SM -RA OVC005 09/09 A3027 RMK AO2 SLP252 P0004 T00940089
TAF
KSME 
43nm E 
220715Z 2207/2306 VRB05KT P6SM VCSH OVC005 FM220900 VRB05KT P6SM SHRA SCT003 OVC007 WS020/21040KT FM221500 21008KT P6SM -SHRA OVC008 FM221700 23007KT P6SM VCSH SCT003 OVC008 FM230500 VRB04KT P6SM -SHRA BKN008
KFTK 
45nm NW 
220950Z 2209/2315 03009KT 8000 -RA OVC007 QNH3029INS BECMG 2215/2216 03009KT 8000 -DZ OVC012 QNH3015INS BECMG 2305/2306 03009KT 6000 -RA OVC009 540302 QNH3033INS BECMG 2307/2308 18009KT 9999 NSW OVC015 QNH3026INS BECMG 2311/2312 18009KT 9999 OVC030 QNH3022INS TX14/2221Z TN05/2309Z
KBWG 
47nm W 
220533Z 2206/2306 05008KT 3SM -SHRA OVC008 FM220800 07006KT 4SM -SHRA OVC008 WS020/21040KT TEMPO 2208/2211 1SM SHRA OVC004 FM221100 03006KT 4SM -SHRA OVC008 FM221800 05005KT P6SM VCSH OVC015 FM230300 14004KT 3SM -SHRA OVC003
NOTAMs
Click for the latest NOTAMs
NOTAMs are issued by the DoD/FAA and will open in a separate window not controlled by AirNav.

 

 
 

Would you like to see your business listed on this page?

 If your business provides an interesting product or service to pilots, flight crews, aircraft, or users of the Jane Todd Crawford Hospital Heliport, you should consider listing it here.  To start the listing process, click on the button below
 
Add a business
 

Other Pages about Jane Todd Crawford Hospital Heliport

Update a link
 
Copyright © AirNav, LLC. All rights reserved. Privacy Policy  Contact